Terminal Aerodrome Forecast
Issued by NWS Cleveland, OH

Home | Current Version | Previous Version | Graphics & Text | Print | Product List | Glossary On
Versions: 1 2 3 4 5 6 7 8 9 10 11 12 13 14 15 16
000
FTUS41 KCLE 070539
TAFYNG
TAF
KYNG 070539Z 0706/0806 19005KT 6SM BR SCT040 SCT250
      TEMPO 0706/0709 3SM BR
     FM070900 19005KT 3SM BR FEW250
      TEMPO 0709/0711 2SM BR
     FM071300 20010KT P6SM SCT030 BKN250
      TEMPO 0713/0716 BKN030 BKN250
     FM071600 21010G20KT P6SM BKN035 OVC200
     FM071900 21010G20KT P6SM VCSH BKN035 OVC060
     FM072200 23015KT P6SM -SHRA VCTS OVC035CB
     FM080300 26007KT 3SM -SHRA BR OVC007=

USA.gov is the U.S. government's official web portal to all federal, state and local government web resources and services.